createdAt,value
2019-05-28T00:01:23.319Z,95887.67
2019-05-28T00:06:17.913Z,95890.61
2019-05-28T00:11:12.501Z,95876.78
2019-05-28T00:16:09.964Z,95874.80
2019-05-28T00:21:03.402Z,95870.83
2019-05-28T00:25:57.979Z,95878.76
2019-05-28T00:30:52.586Z,95875.70
2019-05-28T00:35:47.185Z,95871.50
2019-05-28T00:40:42.352Z,95868.34
2019-05-28T00:45:36.933Z,95862.27
2019-05-28T00:50:31.585Z,95857.75
2019-05-28T00:55:26.569Z,95838.70
2019-05-28T01:00:43.693Z,95849.67
2019-05-28T01:05:38.288Z,95844.90
2019-05-28T01:10:32.871Z,95840.41
2019-05-28T01:15:27.468Z,95838.57
2019-05-28T01:20:22.206Z,95836.22
2019-05-28T01:25:16.932Z,95820.33
2019-05-28T01:30:11.734Z,95826.17
2019-05-28T01:35:07.653Z,95821.43
2019-05-28T01:40:02.286Z,95827.34
2019-05-28T01:44:56.906Z,95821.66
2019-05-28T01:49:51.483Z,95822.93
2019-05-28T01:54:46.072Z,95812.72
2019-05-28T01:59:40.667Z,95806.95
2019-05-28T02:04:35.253Z,95806.09
2019-05-28T02:09:29.870Z,95803.95
2019-05-28T02:14:24.466Z,95803.59
2019-05-28T02:19:19.063Z,95804.44
2019-05-28T02:24:13.672Z,95805.21
2019-05-28T02:29:08.247Z,95807.25
2019-05-28T02:34:02.836Z,95803.63
2019-05-28T02:38:57.429Z,95804.94
2019-05-28T02:43:52.147Z,95800.73
2019-05-28T02:48:46.811Z,95804.98
2019-05-28T02:53:41.817Z,95809.22
2019-05-28T02:58:37.720Z,95803.42
2019-05-28T03:03:32.961Z,95801.05
2019-05-28T03:08:31.175Z,95796.01
2019-05-28T03:13:25.772Z,95797.06
2019-05-28T03:18:23.838Z,95792.06
2019-05-28T03:23:19.823Z,95790.25
2019-05-28T03:28:14.433Z,95796.30
2019-05-28T03:33:09.165Z,95792.86
2019-05-28T03:38:04.060Z,95793.36
2019-05-28T03:42:58.635Z,95796.47
2019-05-28T03:47:53.228Z,95794.91
2019-05-28T03:52:47.825Z,95795.95
2019-05-28T03:57:42.427Z,95787.81
2019-05-28T04:02:37.018Z,95791.19
2019-05-28T04:07:31.619Z,95794.31
2019-05-28T04:12:26.197Z,95782.75
2019-05-28T04:17:20.790Z,95772.45
2019-05-28T04:22:15.388Z,95782.22
2019-05-28T04:27:09.989Z,95773.77
2019-05-28T04:32:04.660Z,95774.55
2019-05-28T04:36:59.236Z,95774.02
2019-05-28T04:41:53.834Z,95773.45
2019-05-28T04:46:48.417Z,95781.30
2019-05-28T04:51:43.003Z,95773.97
2019-05-28T04:56:37.610Z,95775.03
2019-05-28T05:01:32.211Z,95770.29
2019-05-28T05:06:26.809Z,95775.78
2019-05-28T05:11:21.392Z,95771.18
2019-05-28T05:16:15.991Z,95776.94
2019-05-28T05:21:10.577Z,95790.12
2019-05-28T05:26:05.326Z,95796.91
2019-05-28T05:30:59.923Z,95795.71
2019-05-28T05:35:56.481Z,95815.38
2019-05-28T05:40:51.068Z,95817.55
2019-05-28T05:45:45.663Z,95828.66
2019-05-28T05:50:40.298Z,95832.89
2019-05-28T05:55:36.836Z,95838.96
2019-05-28T06:00:31.512Z,95839.02
2019-05-28T06:05:26.103Z,95846.38
2019-05-28T06:10:20.865Z,95847.42
2019-05-28T06:15:15.753Z,95850.81
2019-05-28T06:20:11.920Z,95850.49
2019-05-28T06:25:07.536Z,95856.73
2019-05-28T06:30:02.231Z,95862.35
2019-05-28T06:35:00.152Z,95864.14
2019-05-28T06:39:54.901Z,95858.56
2019-05-28T06:44:49.556Z,95860.35
2019-05-28T06:49:44.108Z,95874.55
2019-05-28T06:54:38.714Z,95881.86
2019-05-28T06:59:33.385Z,95885.50
2019-05-28T07:04:32.676Z,95889.83
2019-05-28T07:09:26.347Z,95902.59
2019-05-28T07:14:20.972Z,95906.14
2019-05-28T07:19:24.466Z,95911.69
2019-05-28T07:24:11.958Z,95918.39
2019-05-28T07:29:06.552Z,95915.37
2019-05-28T07:34:27.399Z,95923.64
2019-05-28T07:39:12.756Z,95918.99
2019-05-28T07:44:14.002Z,95919.92
2019-05-28T07:49:08.669Z,95922.62
2019-05-28T07:54:03.598Z,95930.99
2019-05-28T07:58:58.314Z,95930.86
2019-05-28T08:03:53.008Z,95936.66
2019-05-28T08:08:47.862Z,95938.51
2019-05-28T08:13:42.436Z,95943.72
2019-05-28T08:18:37.436Z,95935.02
2019-05-28T08:23:31.999Z,95942.20
2019-05-28T08:28:47.203Z,95950.21
2019-05-28T08:33:42.228Z,95947.82
2019-05-28T08:38:36.897Z,95960.33
2019-05-28T08:43:31.502Z,95965.20
2019-05-28T08:48:26.333Z,95968.14
2019-05-28T08:53:20.927Z,95975.30
2019-05-28T08:58:15.658Z,95984.72
2019-05-28T09:03:11.127Z,95989.48
2019-05-28T09:08:06.763Z,95985.84
2019-05-28T09:13:01.671Z,96005.19
2019-05-28T09:17:56.396Z,96013.63
2019-05-28T09:22:51.957Z,96021.16
2019-05-28T09:27:46.772Z,96032.92
2019-05-28T09:32:41.608Z,96034.22
2019-05-28T09:37:36.422Z,96039.50
2019-05-28T09:42:35.450Z,96045.86
2019-05-28T09:47:29.512Z,96059.84
2019-05-28T09:52:24.125Z,96061.34
2019-05-28T09:57:18.779Z,96074.08
2019-05-28T10:02:13.452Z,96077.83
2019-05-28T10:07:08.264Z,96090.01
2019-05-28T10:12:02.977Z,96094.80
2019-05-28T10:16:57.784Z,96103.22
2019-05-28T10:21:52.396Z,96102.93
2019-05-28T10:26:47.007Z,96097.56
2019-05-28T10:31:41.824Z,96093.36
2019-05-28T10:36:38.102Z,96101.80
2019-05-28T10:41:32.855Z,96103.77
2019-05-28T10:46:27.436Z,96116.34
2019-05-28T10:51:22.146Z,96116.49
2019-05-28T10:56:16.730Z,96116.59
2019-05-28T11:01:11.430Z,96122.77
2019-05-28T11:06:06.392Z,96119.48
2019-05-28T11:11:01.085Z,96120.66
2019-05-28T11:15:56.440Z,96123.14
2019-05-28T11:20:51.065Z,96120.86
2019-05-28T11:25:45.808Z,96115.84
2019-05-28T11:30:40.546Z,96129.25
2019-05-28T11:35:35.149Z,96125.67
2019-05-28T11:40:30.312Z,96131.64
2019-05-28T11:45:25.262Z,96141.62
2019-05-28T11:50:20.394Z,96126.20
2019-05-28T11:55:18.498Z,96130.91
2019-05-28T12:00:15.493Z,96129.84
2019-05-28T12:05:12.268Z,96131.13
2019-05-28T12:10:10.898Z,96136.14
2019-05-28T12:15:12.277Z,96131.99
2019-05-28T12:20:11.630Z,96134.89
2019-05-28T12:25:08.310Z,96136.59
2019-05-28T12:30:09.168Z,96129.15
2019-05-28T12:35:05.844Z,96127.33
2019-05-28T12:40:04.251Z,96122.70
2019-05-28T12:48:25.955Z,96124.09
2019-05-28T12:50:18.061Z,96119.56
2019-05-28T12:55:00.579Z,96122.61
2019-05-28T12:59:56.322Z,96117.26
2019-05-28T13:04:50.937Z,96124.72
2019-05-28T13:09:48.998Z,96123.86
2019-05-28T13:14:42.201Z,96126.16
2019-05-28T13:19:36.812Z,96121.48
2019-05-28T13:24:31.395Z,96126.72
2019-05-28T13:29:26.132Z,96133.10
2019-05-28T13:34:20.777Z,96138.94
2019-05-28T13:39:15.439Z,96158.92
2019-05-28T13:44:10.190Z,96159.22
2019-05-28T13:49:04.894Z,96161.19
2019-05-28T13:53:59.540Z,96162.48
2019-05-28T13:58:54.137Z,96161.73
2019-05-28T14:03:52.332Z,96169.34
2019-05-28T14:08:47.664Z,96173.61
2019-05-28T14:13:42.323Z,96178.70
2019-05-28T14:18:36.956Z,96170.70
2019-05-28T14:23:31.579Z,96165.27
2019-05-28T14:28:26.203Z,96166.52
2019-05-28T14:33:20.779Z,96177.84
2019-05-28T14:38:15.369Z,96171.16
2019-05-28T14:43:10.052Z,96173.55
2019-05-28T14:48:07.542Z,96179.23
2019-05-28T14:53:02.173Z,96180.39
2019-05-28T14:57:57.764Z,96188.89
2019-05-28T15:02:52.364Z,96197.41
2019-05-28T15:07:46.982Z,96206.17
2019-05-28T15:12:42.425Z,96207.13
2019-05-28T15:17:37.114Z,96211.22
2019-05-28T15:22:31.895Z,96223.81
2019-05-28T15:27:27.167Z,96229.91
2019-05-28T15:32:22.066Z,96235.22
2019-05-28T15:37:16.635Z,96233.63
2019-05-28T15:42:20.216Z,96237.89
2019-05-28T15:47:26.686Z,96245.85
2019-05-28T15:52:21.236Z,96257.73
2019-05-28T15:57:15.822Z,96265.87
2019-05-28T16:02:10.660Z,96272.16
2019-05-28T16:07:05.333Z,96285.00
2019-05-28T16:11:59.934Z,96292.62
2019-05-28T16:16:54.565Z,96292.73
2019-05-28T16:21:49.312Z,96293.33
2019-05-28T16:26:43.930Z,96295.92
2019-05-28T16:31:38.991Z,96296.66
2019-05-28T16:36:33.586Z,96298.25
2019-05-28T16:41:28.560Z,96299.89
2019-05-28T16:46:23.240Z,96305.68
2019-05-28T16:51:17.809Z,96303.86
2019-05-28T16:56:12.411Z,96306.91
2019-05-28T17:01:21.722Z,96310.64
2019-05-28T17:06:03.370Z,96314.60
2019-05-28T17:10:58.044Z,96313.05
2019-05-28T17:15:52.606Z,96315.14
2019-05-28T17:20:47.224Z,96322.23
2019-05-28T17:25:41.813Z,96328.19
2019-05-28T17:30:36.394Z,96332.16
2019-05-28T17:35:31.020Z,96340.25
2019-05-28T17:40:25.580Z,96337.75
2019-05-28T17:45:20.729Z,96345.07
2019-05-28T17:50:16.526Z,96348.24
2019-05-28T17:55:11.340Z,96362.36
2019-05-28T18:00:09.270Z,96364.08
2019-05-28T18:05:04.804Z,96371.15
2019-05-28T18:09:59.388Z,96380.28
2019-05-28T18:14:53.985Z,96380.55
2019-05-28T18:19:48.572Z,96379.78
2019-05-28T18:24:43.164Z,96383.63
2019-05-28T18:29:37.763Z,96389.90
2019-05-28T18:34:32.344Z,96395.16
2019-05-28T18:39:27.225Z,96403.56
2019-05-28T18:44:22.129Z,96413.67
2019-05-28T18:49:16.714Z,96412.96
2019-05-28T18:54:11.323Z,96421.49
2019-05-28T18:59:06.070Z,96427.19
2019-05-28T19:04:00.720Z,96441.16
2019-05-28T19:08:55.363Z,96443.77
2019-05-28T19:13:49.965Z,96451.09
2019-05-28T19:18:44.545Z,96454.91
2019-05-28T19:23:39.132Z,96469.41
2019-05-28T19:28:33.759Z,96474.27
2019-05-28T19:33:29.109Z,96474.27
2019-05-28T19:38:24.930Z,96476.71
2019-05-28T19:43:19.551Z,96479.09
2019-05-28T19:48:14.161Z,96479.25
2019-05-28T19:53:08.942Z,96493.03
2019-05-28T19:58:03.703Z,96493.53
2019-05-28T20:02:59.089Z,96498.55
2019-05-28T20:07:53.736Z,96510.04
2019-05-28T20:12:48.333Z,96508.95
2019-05-28T20:17:42.933Z,96514.74
2019-05-28T20:22:37.660Z,96515.52
2019-05-28T20:27:32.327Z,96527.33
2019-05-28T20:32:26.960Z,96535.66
2019-05-28T20:37:21.533Z,96538.11
2019-05-28T20:42:26.976Z,96544.25
2019-05-28T20:47:12.601Z,96554.24
2019-05-28T20:52:07.189Z,96562.72
2019-05-28T20:57:01.787Z,96569.14
2019-05-28T21:01:56.392Z,96568.40
2019-05-28T21:06:52.084Z,96579.19
2019-05-28T21:11:46.850Z,96580.78
2019-05-28T21:16:41.445Z,96579.69
2019-05-28T21:21:36.032Z,96593.58
2019-05-28T21:26:30.694Z,96592.34
2019-05-28T21:31:25.332Z,96593.03
2019-05-28T21:36:19.927Z,96588.19
2019-05-28T21:41:14.504Z,96586.34
2019-05-28T21:46:09.118Z,96577.94
2019-05-28T21:51:03.714Z,96581.02
2019-05-28T21:55:59.348Z,96577.08
2019-05-28T22:01:05.152Z,96581.78
2019-05-28T22:05:59.731Z,96580.18
2019-05-28T22:10:55.498Z,96579.70
2019-05-28T22:15:50.427Z,96583.72
2019-05-28T22:20:45.040Z,96580.80
2019-05-28T22:25:39.630Z,96582.66
2019-05-28T22:30:34.238Z,96583.09
2019-05-28T22:35:48.209Z,96579.60
2019-05-28T22:40:42.931Z,96586.79
2019-05-28T22:45:42.505Z,96587.75
2019-05-28T22:50:33.901Z,96590.88
2019-05-28T22:55:28.571Z,96585.86
2019-05-28T23:00:24.344Z,96590.62
2019-05-28T23:05:18.946Z,96594.27
2019-05-28T23:10:13.932Z,96593.67
2019-05-28T23:15:10.645Z,96585.41
2019-05-28T23:20:09.020Z,96586.67
2019-05-28T23:25:05.342Z,96582.20
2019-05-28T23:30:00.162Z,96583.95
2019-05-28T23:34:56.371Z,96592.44
2019-05-28T23:39:51.063Z,96600.05
2019-05-28T23:44:45.655Z,96598.35
2019-05-28T23:49:40.250Z,96595.73
2019-05-28T23:54:34.909Z,96601.23
2019-05-28T23:59:29.499Z,96606.81
